| Date | Time | Temp. (oF) | Dew Point (oF) | Rel. Hum. (%) | Press. (in.) | Wind Dir. | Wind Speed (mph) | Hourly Rainfall (in.) |
|
|---|---|---|---|---|---|---|---|---|---|
| 1 | 05/16 | 00:00 | 43 | 26 | 53 | 30.01 | S | 4 | 0.00 |
| 2 | 05/15 | 23:00 | 45 | 27 | 50 | 30.00 | NNW | 4 | 0.00 |
| 3 | 05/15 | 22:00 | 45 | 27 | 51 | 29.97 | SW | 7 | 0.00 |
| 4 | 05/15 | 21:00 | 47 | 26 | 45 | 29.94 | SSW | 3 | 0.00 |
| 5 | 05/15 | 20:00 | 49 | 27 | 43 | 29.90 | WSW | 7 | 0.00 |
| 6 | 05/15 | 19:00 | 51 | 30 | 45 | 29.86 | NNE | 11 | 0.00 |
| 7 | 05/15 | 18:00 | 52 | 28 | 41 | 29.84 | NE | 20 | 0.00 |
| 8 | 05/15 | 17:00 | 53 | 25 | 34 | 29.81 | SW | 11 | 0.00 |
| 9 | 05/15 | 16:00 | 53 | 25 | 34 | 29.81 | N | 13 | 0.00 |
| 10 | 05/15 | 15:00 | 55 | 28 | 36 | 29.82 | WSW | 7 | 0.00 |
| 11 | 05/15 | 14:00 | 53 | 27 | 38 | 29.81 | S | 5 | 0.00 |
| 12 | 05/15 | 13:00 | 54 | 31 | 42 | 29.81 | SW | 9 | 0.00 |
| 13 | 05/15 | 12:00 | 51 | 30 | 46 | 29.82 | WSW | 14 | 0.00 |
| 14 | 05/15 | 11:00 | 50 | 33 | 52 | 29.82 | WSW | 7 | 0.00 |
| 15 | 05/15 | 10:00 | 50 | 32 | 51 | 29.83 | SW | 13 | 0.00 |
| 16 | 05/15 | 09:00 | 49 | 33 | 54 | 29.82 | S | 8 | 0.00 |
| 17 | 05/15 | 08:00 | 46 | 32 | 60 | 29.82 | WSW | 5 | 0.00 |
| 18 | 05/15 | 07:00 | 44 | 35 | 73 | 29.81 | SSW | 7 | 0.00 |
| 19 | 05/15 | 06:00 | 44 | 34 | 70 | 29.81 | S | 4 | 0.00 |
| 20 | 05/15 | 05:00 | 46 | 35 | 67 | 29.79 | SW | 7 | 0.00 |
| 21 | 05/15 | 04:00 | 46 | 34 | 64 | 29.75 | NNW | 4 | 0.00 |
| 22 | 05/15 | 03:00 | 47 | 36 | 67 | 29.75 | SSE | 3 | 0.00 |
| 23 | 05/15 | 02:00 | 47 | 35 | 65 | 29.74 | SSW | 3 | 0.00 |
| 24 | 05/15 | 01:00 | 47 | 38 | 71 | 29.74 | WSW | 0 | 0.00 |